sensor_id;sensor_type;location;lat;lon;timestamp;P1;durP1;ratioP1;P2;durP2;ratioP2
6117;SDS011;3089;48.202;11.510;2022-10-16T00:01:28;6.50;;;1.60;;
6117;SDS011;3089;48.202;11.510;2022-10-16T00:03:58;5.00;;;1.47;;
6117;SDS011;3089;48.202;11.510;2022-10-16T00:06:28;5.43;;;1.80;;
6117;SDS011;3089;48.202;11.510;2022-10-16T00:08:56;5.17;;;1.80;;
6117;SDS011;3089;48.202;11.510;2022-10-16T00:11:25;6.93;;;1.90;;
6117;SDS011;3089;48.202;11.510;2022-10-16T00:13:55;3.70;;;1.57;;
6117;SDS011;3089;48.202;11.510;2022-10-16T00:16:24;3.83;;;1.50;;
6117;SDS011;3089;48.202;11.510;2022-10-16T00:18:52;12.03;;;2.27;;
6117;SDS011;3089;48.202;11.510;2022-10-16T00:21:21;3.57;;;1.30;;
6117;SDS011;3089;48.202;11.510;2022-10-16T00:23:52;4.10;;;1.63;;
6117;SDS011;3089;48.202;11.510;2022-10-16T00:26:20;3.20;;;1.20;;
6117;SDS011;3089;48.202;11.510;2022-10-16T00:28:49;2.93;;;1.10;;
6117;SDS011;3089;48.202;11.510;2022-10-16T00:31:18;4.47;;;1.50;;
6117;SDS011;3089;48.202;11.510;2022-10-16T00:33:48;7.93;;;1.20;;
6117;SDS011;3089;48.202;11.510;2022-10-16T00:36:17;4.10;;;1.43;;
6117;SDS011;3089;48.202;11.510;2022-10-16T00:38:46;4.73;;;1.80;;
6117;SDS011;3089;48.202;11.510;2022-10-16T00:41:21;2.53;;;0.97;;
6117;SDS011;3089;48.202;11.510;2022-10-16T00:43:50;3.43;;;1.40;;
6117;SDS011;3089;48.202;11.510;2022-10-16T00:46:20;3.03;;;1.37;;
6117;SDS011;3089;48.202;11.510;2022-10-16T00:48:50;3.30;;;1.30;;
6117;SDS011;3089;48.202;11.510;2022-10-16T00:51:23;4.50;;;1.60;;
6117;SDS011;3089;48.202;11.510;2022-10-16T00:53:55;4.10;;;1.33;;
6117;SDS011;3089;48.202;11.510;2022-10-16T00:56:25;2.67;;;1.30;;
6117;SDS011;3089;48.202;11.510;2022-10-16T00:58:53;2.87;;;1.20;;
6117;SDS011;3089;48.202;11.510;2022-10-16T01:01:21;3.00;;;1.30;;
6117;SDS011;3089;48.202;11.510;2022-10-16T01:03:48;4.07;;;1.13;;
6117;SDS011;3089;48.202;11.510;2022-10-16T01:06:21;6.43;;;1.40;;
6117;SDS011;3089;48.202;11.510;2022-10-16T01:08:58;3.27;;;1.47;;
6117;SDS011;3089;48.202;11.510;2022-10-16T01:11:38;3.83;;;1.40;;
6117;SDS011;3089;48.202;11.510;2022-10-16T01:14:14;2.70;;;0.97;;
6117;SDS011;3089;48.202;11.510;2022-10-16T01:16:49;3.40;;;1.57;;
6117;SDS011;3089;48.202;11.510;2022-10-16T01:19:26;3.90;;;1.20;;
6117;SDS011;3089;48.202;11.510;2022-10-16T01:22:11;3.70;;;1.20;;
6117;SDS011;3089;48.202;11.510;2022-10-16T01:24:41;5.47;;;1.43;;
6117;SDS011;3089;48.202;11.510;2022-10-16T01:27:19;3.93;;;1.27;;
6117;SDS011;3089;48.202;11.510;2022-10-16T01:29:52;3.20;;;1.30;;
6117;SDS011;3089;48.202;11.510;2022-10-16T01:32:23;3.37;;;1.10;;
6117;SDS011;3089;48.202;11.510;2022-10-16T01:34:58;4.13;;;1.30;;
6117;SDS011;3089;48.202;11.510;2022-10-16T01:37:32;3.60;;;1.30;;
6117;SDS011;3089;48.202;11.510;2022-10-16T01:40:05;4.57;;;1.00;;
6117;SDS011;3089;48.202;11.510;2022-10-16T01:42:38;7.03;;;1.27;;
6117;SDS011;3089;48.202;11.510;2022-10-16T01:45:09;4.10;;;1.20;;
6117;SDS011;3089;48.202;11.510;2022-10-16T01:47:40;5.07;;;0.97;;
6117;SDS011;3089;48.202;11.510;2022-10-16T01:50:09;2.47;;;0.90;;
6117;SDS011;3089;48.202;11.510;2022-10-16T01:52:40;3.03;;;1.00;;
6117;SDS011;3089;48.202;11.510;2022-10-16T01:55:11;11.07;;;1.37;;
6117;SDS011;3089;48.202;11.510;2022-10-16T01:57:44;2.53;;;1.03;;
6117;SDS011;3089;48.202;11.510;2022-10-16T02:00:16;3.57;;;0.93;;
6117;SDS011;3089;48.202;11.510;2022-10-16T02:02:47;7.63;;;1.37;;
6117;SDS011;3089;48.202;11.510;2022-10-16T02:05:18;3.53;;;0.97;;
6117;SDS011;3089;48.202;11.510;2022-10-16T02:07:50;3.50;;;0.93;;
6117;SDS011;3089;48.202;11.510;2022-10-16T02:10:18;2.57;;;1.00;;
6117;SDS011;3089;48.202;11.510;2022-10-16T02:12:49;6.10;;;1.40;;
6117;SDS011;3089;48.202;11.510;2022-10-16T02:15:22;3.47;;;1.27;;
6117;SDS011;3089;48.202;11.510;2022-10-16T02:17:50;4.43;;;1.23;;
6117;SDS011;3089;48.202;11.510;2022-10-16T02:20:18;2.40;;;0.90;;
6117;SDS011;3089;48.202;11.510;2022-10-16T02:22:49;2.77;;;1.00;;
6117;SDS011;3089;48.202;11.510;2022-10-16T02:25:19;3.03;;;1.07;;
6117;SDS011;3089;48.202;11.510;2022-10-16T02:27:53;2.57;;;1.07;;
6117;SDS011;3089;48.202;11.510;2022-10-16T02:30:24;2.73;;;1.00;;
6117;SDS011;3089;48.202;11.510;2022-10-16T02:32:56;2.50;;;0.90;;
6117;SDS011;3089;48.202;11.510;2022-10-16T02:35:27;2.70;;;1.07;;
6117;SDS011;3089;48.202;11.510;2022-10-16T02:37:57;2.80;;;0.90;;
6117;SDS011;3089;48.202;11.510;2022-10-16T02:40:25;4.20;;;1.40;;
6117;SDS011;3089;48.202;11.510;2022-10-16T02:42:56;2.93;;;1.00;;
6117;SDS011;3089;48.202;11.510;2022-10-16T02:45:23;4.40;;;1.20;;
6117;SDS011;3089;48.202;11.510;2022-10-16T02:47:51;2.70;;;1.00;;
6117;SDS011;3089;48.202;11.510;2022-10-16T02:50:19;4.33;;;1.20;;
6117;SDS011;3089;48.202;11.510;2022-10-16T02:52:48;3.00;;;1.20;;
6117;SDS011;3089;48.202;11.510;2022-10-16T02:55:16;3.73;;;1.10;;
6117;SDS011;3089;48.202;11.510;2022-10-16T02:57:44;4.50;;;1.33;;
6117;SDS011;3089;48.202;11.510;2022-10-16T03:00:14;2.50;;;0.90;;
6117;SDS011;3089;48.202;11.510;2022-10-16T03:02:44;3.37;;;1.03;;
6117;SDS011;3089;48.202;11.510;2022-10-16T03:05:12;2.90;;;1.20;;
6117;SDS011;3089;48.202;11.510;2022-10-16T03:07:40;2.40;;;0.90;;
6117;SDS011;3089;48.202;11.510;2022-10-16T03:10:08;3.77;;;0.93;;
6117;SDS011;3089;48.202;11.510;2022-10-16T03:12:36;2.43;;;0.80;;
6117;SDS011;3089;48.202;11.510;2022-10-16T03:15:04;9.87;;;1.20;;
6117;SDS011;3089;48.202;11.510;2022-10-16T03:17:34;4.67;;;1.03;;
6117;SDS011;3089;48.202;11.510;2022-10-16T03:20:02;2.50;;;0.97;;
6117;SDS011;3089;48.202;11.510;2022-10-16T03:22:30;5.73;;;1.60;;
6117;SDS011;3089;48.202;11.510;2022-10-16T03:24:58;3.37;;;1.23;;
6117;SDS011;3089;48.202;11.510;2022-10-16T03:27:26;3.93;;;1.00;;
6117;SDS011;3089;48.202;11.510;2022-10-16T03:29:54;5.40;;;1.50;;
6117;SDS011;3089;48.202;11.510;2022-10-16T03:32:22;3.27;;;1.27;;
6117;SDS011;3089;48.202;11.510;2022-10-16T03:34:52;4.43;;;1.17;;
6117;SDS011;3089;48.202;11.510;2022-10-16T03:37:22;3.27;;;1.20;;
6117;SDS011;3089;48.202;11.510;2022-10-16T03:39:51;2.80;;;1.20;;
6117;SDS011;3089;48.202;11.510;2022-10-16T03:42:19;2.50;;;1.00;;
6117;SDS011;3089;48.202;11.510;2022-10-16T03:44:46;2.67;;;1.00;;
6117;SDS011;3089;48.202;11.510;2022-10-16T03:47:14;2.60;;;1.00;;
6117;SDS011;3089;48.202;11.510;2022-10-16T03:49:46;8.63;;;1.27;;
6117;SDS011;3089;48.202;11.510;2022-10-16T03:52:15;4.10;;;0.90;;
6117;SDS011;3089;48.202;11.510;2022-10-16T03:54:48;3.10;;;1.00;;
6117;SDS011;3089;48.202;11.510;2022-10-16T03:57:16;3.23;;;1.10;;
6117;SDS011;3089;48.202;11.510;2022-10-16T03:59:44;5.53;;;1.13;;
6117;SDS011;3089;48.202;11.510;2022-10-16T04:02:12;2.43;;;0.90;;
6117;SDS011;3089;48.202;11.510;2022-10-16T04:04:40;3.93;;;1.10;;
6117;SDS011;3089;48.202;11.510;2022-10-16T04:07:08;6.83;;;1.23;;
6117;SDS011;3089;48.202;11.510;2022-10-16T04:09:37;3.70;;;1.60;;
6117;SDS011;3089;48.202;11.510;2022-10-16T04:12:05;3.53;;;1.20;;
6117;SDS011;3089;48.202;11.510;2022-10-16T04:14:32;4.17;;;1.30;;
6117;SDS011;3089;48.202;11.510;2022-10-16T04:17:01;2.87;;;1.17;;
6117;SDS011;3089;48.202;11.510;2022-10-16T04:19:29;2.60;;;1.00;;
6117;SDS011;3089;48.202;11.510;2022-10-16T04:21:56;4.50;;;1.03;;
6117;SDS011;3089;48.202;11.510;2022-10-16T04:24:24;3.10;;;1.03;;
6117;SDS011;3089;48.202;11.510;2022-10-16T04:26:53;2.87;;;1.00;;
6117;SDS011;3089;48.202;11.510;2022-10-16T04:29:21;3.10;;;1.10;;
6117;SDS011;3089;48.202;11.510;2022-10-16T04:31:49;2.50;;;0.90;;
6117;SDS011;3089;48.202;11.510;2022-10-16T04:34:16;2.40;;;0.90;;
6117;SDS011;3089;48.202;11.510;2022-10-16T04:36:46;5.53;;;1.03;;
6117;SDS011;3089;48.202;11.510;2022-10-16T04:39:15;2.63;;;1.20;;
6117;SDS011;3089;48.202;11.510;2022-10-16T04:41:43;4.10;;;1.20;;
6117;SDS011;3089;48.202;11.510;2022-10-16T04:44:12;8.10;;;1.30;;
6117;SDS011;3089;48.202;11.510;2022-10-16T04:46:40;4.40;;;1.57;;
6117;SDS011;3089;48.202;11.510;2022-10-16T04:49:08;3.40;;;1.43;;
6117;SDS011;3089;48.202;11.510;2022-10-16T04:51:35;6.10;;;2.00;;
6117;SDS011;3089;48.202;11.510;2022-10-16T04:54:03;6.00;;;1.60;;
6117;SDS011;3089;48.202;11.510;2022-10-16T04:56:31;2.93;;;1.13;;
6117;SDS011;3089;48.202;11.510;2022-10-16T04:58:59;3.20;;;1.10;;
6117;SDS011;3089;48.202;11.510;2022-10-16T05:01:28;2.37;;;0.80;;
6117;SDS011;3089;48.202;11.510;2022-10-16T05:03:56;4.10;;;1.20;;
6117;SDS011;3089;48.202;11.510;2022-10-16T05:06:23;3.73;;;1.17;;
6117;SDS011;3089;48.202;11.510;2022-10-16T05:08:51;3.50;;;1.20;;
6117;SDS011;3089;48.202;11.510;2022-10-16T05:11:19;3.30;;;0.90;;
6117;SDS011;3089;48.202;11.510;2022-10-16T05:13:47;4.43;;;1.07;;
6117;SDS011;3089;48.202;11.510;2022-10-16T05:16:20;2.73;;;1.10;;
6117;SDS011;3089;48.202;11.510;2022-10-16T05:18:49;6.27;;;1.00;;
6117;SDS011;3089;48.202;11.510;2022-10-16T05:21:35;2.57;;;1.20;;
6117;SDS011;3089;48.202;11.510;2022-10-16T05:24:03;2.60;;;0.97;;
6117;SDS011;3089;48.202;11.510;2022-10-16T05:26:31;4.23;;;1.00;;
6117;SDS011;3089;48.202;11.510;2022-10-16T05:28:59;2.73;;;1.00;;
6117;SDS011;3089;48.202;11.510;2022-10-16T05:31:26;2.83;;;1.27;;
6117;SDS011;3089;48.202;11.510;2022-10-16T05:33:58;3.40;;;1.60;;
6117;SDS011;3089;48.202;11.510;2022-10-16T05:36:27;13.13;;;2.13;;
6117;SDS011;3089;48.202;11.510;2022-10-16T05:38:55;2.73;;;1.00;;
6117;SDS011;3089;48.202;11.510;2022-10-16T05:41:24;3.13;;;1.43;;
6117;SDS011;3089;48.202;11.510;2022-10-16T05:43:52;3.07;;;1.23;;
6117;SDS011;3089;48.202;11.510;2022-10-16T05:46:20;3.60;;;1.00;;
6117;SDS011;3089;48.202;11.510;2022-10-16T05:48:48;3.27;;;1.30;;
6117;SDS011;3089;48.202;11.510;2022-10-16T05:51:20;5.97;;;1.57;;
6117;SDS011;3089;48.202;11.510;2022-10-16T05:53:48;3.50;;;1.30;;
6117;SDS011;3089;48.202;11.510;2022-10-16T05:56:15;4.27;;;1.37;;
6117;SDS011;3089;48.202;11.510;2022-10-16T05:58:43;4.73;;;1.00;;
6117;SDS011;3089;48.202;11.510;2022-10-16T06:01:12;3.43;;;1.40;;
6117;SDS011;3089;48.202;11.510;2022-10-16T06:03:41;4.47;;;1.50;;
6117;SDS011;3089;48.202;11.510;2022-10-16T06:06:09;2.57;;;1.23;;
6117;SDS011;3089;48.202;11.510;2022-10-16T06:08:39;3.10;;;1.30;;
6117;SDS011;3089;48.202;11.510;2022-10-16T06:11:08;4.60;;;1.43;;
6117;SDS011;3089;48.202;11.510;2022-10-16T06:13:38;3.13;;;1.23;;
6117;SDS011;3089;48.202;11.510;2022-10-16T06:16:08;3.10;;;1.27;;
6117;SDS011;3089;48.202;11.510;2022-10-16T06:18:36;2.90;;;1.10;;
6117;SDS011;3089;48.202;11.510;2022-10-16T06:21:06;3.50;;;1.10;;
6117;SDS011;3089;48.202;11.510;2022-10-16T06:23:35;5.13;;;1.20;;
6117;SDS011;3089;48.202;11.510;2022-10-16T06:26:05;2.90;;;1.10;;
6117;SDS011;3089;48.202;11.510;2022-10-16T06:28:34;4.77;;;0.97;;
6117;SDS011;3089;48.202;11.510;2022-10-16T06:31:02;5.30;;;1.50;;
6117;SDS011;3089;48.202;11.510;2022-10-16T06:33:33;3.73;;;1.30;;
6117;SDS011;3089;48.202;11.510;2022-10-16T06:36:02;2.70;;;1.30;;
6117;SDS011;3089;48.202;11.510;2022-10-16T06:38:30;5.20;;;0.97;;
6117;SDS011;3089;48.202;11.510;2022-10-16T06:40:59;3.03;;;1.20;;
6117;SDS011;3089;48.202;11.510;2022-10-16T06:43:29;3.10;;;1.30;;
6117;SDS011;3089;48.202;11.510;2022-10-16T06:45:59;7.50;;;1.20;;
6117;SDS011;3089;48.202;11.510;2022-10-16T06:48:27;2.80;;;1.10;;
6117;SDS011;3089;48.202;11.510;2022-10-16T06:50:56;3.77;;;1.20;;
6117;SDS011;3089;48.202;11.510;2022-10-16T06:53:25;2.87;;;1.03;;
6117;SDS011;3089;48.202;11.510;2022-10-16T06:56:09;3.30;;;1.00;;
6117;SDS011;3089;48.202;11.510;2022-10-16T06:58:40;6.70;;;1.50;;
6117;SDS011;3089;48.202;11.510;2022-10-16T07:01:08;2.57;;;1.00;;
6117;SDS011;3089;48.202;11.510;2022-10-16T07:03:38;4.47;;;1.40;;
6117;SDS011;3089;48.202;11.510;2022-10-16T07:06:07;2.77;;;1.20;;
6117;SDS011;3089;48.202;11.510;2022-10-16T07:08:37;4.10;;;1.30;;
6117;SDS011;3089;48.202;11.510;2022-10-16T07:11:06;4.40;;;1.47;;
6117;SDS011;3089;48.202;11.510;2022-10-16T07:13:36;4.30;;;1.93;;
6117;SDS011;3089;48.202;11.510;2022-10-16T07:16:07;4.47;;;2.33;;
6117;SDS011;3089;48.202;11.510;2022-10-16T07:18:37;4.40;;;1.40;;
6117;SDS011;3089;48.202;11.510;2022-10-16T07:21:06;5.90;;;1.73;;
6117;SDS011;3089;48.202;11.510;2022-10-16T07:23:38;3.27;;;1.57;;
6117;SDS011;3089;48.202;11.510;2022-10-16T07:26:06;4.00;;;1.47;;
6117;SDS011;3089;48.202;11.510;2022-10-16T07:28:35;5.30;;;1.80;;
6117;SDS011;3089;48.202;11.510;2022-10-16T07:31:04;7.40;;;1.90;;
6117;SDS011;3089;48.202;11.510;2022-10-16T07:33:35;3.33;;;1.60;;
6117;SDS011;3089;48.202;11.510;2022-10-16T07:36:03;3.30;;;1.73;;
6117;SDS011;3089;48.202;11.510;2022-10-16T07:38:32;6.13;;;2.20;;
6117;SDS011;3089;48.202;11.510;2022-10-16T07:41:00;5.20;;;2.13;;
6117;SDS011;3089;48.202;11.510;2022-10-16T07:43:29;3.87;;;1.70;;
6117;SDS011;3089;48.202;11.510;2022-10-16T07:45:57;3.53;;;1.57;;
6117;SDS011;3089;48.202;11.510;2022-10-16T07:48:32;3.60;;;1.67;;
6117;SDS011;3089;48.202;11.510;2022-10-16T07:51:03;3.70;;;1.70;;
6117;SDS011;3089;48.202;11.510;2022-10-16T07:53:32;4.20;;;2.03;;
6117;SDS011;3089;48.202;11.510;2022-10-16T07:56:00;3.47;;;1.73;;
6117;SDS011;3089;48.202;11.510;2022-10-16T07:58:30;8.50;;;1.90;;
6117;SDS011;3089;48.202;11.510;2022-10-16T08:00:58;7.70;;;1.70;;
6117;SDS011;3089;48.202;11.510;2022-10-16T08:03:30;8.60;;;2.10;;
6117;SDS011;3089;48.202;11.510;2022-10-16T08:05:58;5.40;;;1.67;;
6117;SDS011;3089;48.202;11.510;2022-10-16T08:08:27;3.93;;;1.67;;
6117;SDS011;3089;48.202;11.510;2022-10-16T08:10:55;6.57;;;1.93;;
6117;SDS011;3089;48.202;11.510;2022-10-16T08:13:23;4.47;;;1.70;;
6117;SDS011;3089;48.202;11.510;2022-10-16T08:15:53;3.70;;;1.70;;
6117;SDS011;3089;48.202;11.510;2022-10-16T08:18:22;8.10;;;1.77;;
6117;SDS011;3089;48.202;11.510;2022-10-16T08:20:54;3.97;;;1.83;;
6117;SDS011;3089;48.202;11.510;2022-10-16T08:23:23;8.43;;;1.70;;
6117;SDS011;3089;48.202;11.510;2022-10-16T08:25:53;4.30;;;2.13;;
6117;SDS011;3089;48.202;11.510;2022-10-16T08:28:22;4.80;;;1.80;;
6117;SDS011;3089;48.202;11.510;2022-10-16T08:30:50;4.43;;;1.83;;
6117;SDS011;3089;48.202;11.510;2022-10-16T08:33:18;3.53;;;1.77;;
6117;SDS011;3089;48.202;11.510;2022-10-16T08:35:50;4.13;;;1.73;;
6117;SDS011;3089;48.202;11.510;2022-10-16T08:38:19;4.70;;;1.60;;
6117;SDS011;3089;48.202;11.510;2022-10-16T08:40:47;3.60;;;1.53;;
6117;SDS011;3089;48.202;11.510;2022-10-16T08:43:26;3.67;;;1.83;;
6117;SDS011;3089;48.202;11.510;2022-10-16T08:46:09;7.50;;;1.70;;
6117;SDS011;3089;48.202;11.510;2022-10-16T08:48:49;6.00;;;2.23;;
6117;SDS011;3089;48.202;11.510;2022-10-16T08:51:19;3.83;;;1.50;;
6117;SDS011;3089;48.202;11.510;2022-10-16T08:53:51;7.27;;;1.63;;
6117;SDS011;3089;48.202;11.510;2022-10-16T08:56:21;4.13;;;1.80;;
6117;SDS011;3089;48.202;11.510;2022-10-16T08:58:50;5.03;;;1.90;;
6117;SDS011;3089;48.202;11.510;2022-10-16T09:01:32;5.50;;;1.87;;
6117;SDS011;3089;48.202;11.510;2022-10-16T09:10:21;2.80;;;1.30;;
6117;SDS011;3089;48.202;11.510;2022-10-16T09:12:59;4.70;;;1.90;;
6117;SDS011;3089;48.202;11.510;2022-10-16T09:15:39;4.33;;;1.63;;
6117;SDS011;3089;48.202;11.510;2022-10-16T09:18:12;7.27;;;2.13;;
6117;SDS011;3089;48.202;11.510;2022-10-16T09:20:49;3.73;;;1.80;;
6117;SDS011;3089;48.202;11.510;2022-10-16T09:23:22;4.50;;;1.60;;
6117;SDS011;3089;48.202;11.510;2022-10-16T09:25:53;4.70;;;1.63;;
6117;SDS011;3089;48.202;11.510;2022-10-16T09:28:23;3.53;;;1.53;;
6117;SDS011;3089;48.202;11.510;2022-10-16T09:31:04;4.47;;;1.90;;
6117;SDS011;3089;48.202;11.510;2022-10-16T09:33:33;4.80;;;1.80;;
6117;SDS011;3089;48.202;11.510;2022-10-16T09:36:06;4.87;;;1.70;;
6117;SDS011;3089;48.202;11.510;2022-10-16T09:38:40;4.77;;;1.70;;
6117;SDS011;3089;48.202;11.510;2022-10-16T09:41:13;6.40;;;1.53;;
6117;SDS011;3089;48.202;11.510;2022-10-16T09:43:47;4.40;;;1.80;;
6117;SDS011;3089;48.202;11.510;2022-10-16T09:46:27;7.03;;;2.03;;
6117;SDS011;3089;48.202;11.510;2022-10-16T09:48:56;4.47;;;2.00;;
6117;SDS011;3089;48.202;11.510;2022-10-16T09:51:31;3.70;;;1.50;;
6117;SDS011;3089;48.202;11.510;2022-10-16T09:54:12;3.87;;;1.60;;
6117;SDS011;3089;48.202;11.510;2022-10-16T09:56:42;2.97;;;1.43;;
6117;SDS011;3089;48.202;11.510;2022-10-16T09:59:19;7.20;;;2.10;;
6117;SDS011;3089;48.202;11.510;2022-10-16T10:01:51;3.47;;;1.57;;
6117;SDS011;3089;48.202;11.510;2022-10-16T10:04:23;3.00;;;1.33;;
6117;SDS011;3089;48.202;11.510;2022-10-16T10:06:52;3.80;;;1.40;;
6117;SDS011;3089;48.202;11.510;2022-10-16T10:09:22;4.20;;;1.80;;
6117;SDS011;3089;48.202;11.510;2022-10-16T10:11:53;5.00;;;1.50;;
6117;SDS011;3089;48.202;11.510;2022-10-16T10:14:25;3.17;;;1.40;;
6117;SDS011;3089;48.202;11.510;2022-10-16T10:17:09;3.13;;;1.47;;
6117;SDS011;3089;48.202;11.510;2022-10-16T10:19:52;4.83;;;1.30;;
6117;SDS011;3089;48.202;11.510;2022-10-16T10:22:29;2.57;;;1.07;;
6117;SDS011;3089;48.202;11.510;2022-10-16T10:25:10;3.33;;;1.30;;
6117;SDS011;3089;48.202;11.510;2022-10-16T10:27:49;3.20;;;1.30;;
6117;SDS011;3089;48.202;11.510;2022-10-16T10:30:29;5.70;;;1.33;;
6117;SDS011;3089;48.202;11.510;2022-10-16T10:33:11;6.33;;;1.73;;
6117;SDS011;3089;48.202;11.510;2022-10-16T10:35:55;3.63;;;1.40;;
6117;SDS011;3089;48.202;11.510;2022-10-16T10:38:35;3.40;;;1.40;;
6117;SDS011;3089;48.202;11.510;2022-10-16T10:41:14;4.50;;;1.30;;
6117;SDS011;3089;48.202;11.510;2022-10-16T10:44:01;3.60;;;1.60;;
6117;SDS011;3089;48.202;11.510;2022-10-16T10:46:35;3.87;;;1.60;;
6117;SDS011;3089;48.202;11.510;2022-10-16T10:49:16;3.77;;;1.40;;
6117;SDS011;3089;48.202;11.510;2022-10-16T10:52:01;3.27;;;1.60;;
6117;SDS011;3089;48.202;11.510;2022-10-16T10:54:38;2.50;;;1.10;;
6117;SDS011;3089;48.202;11.510;2022-10-16T10:57:19;2.83;;;1.10;;
6117;SDS011;3089;48.202;11.510;2022-10-16T10:59:54;2.90;;;1.10;;
6117;SDS011;3089;48.202;11.510;2022-10-16T11:02:45;3.93;;;1.30;;
6117;SDS011;3089;48.202;11.510;2022-10-16T11:05:23;5.23;;;1.50;;
6117;SDS011;3089;48.202;11.510;2022-10-16T11:08:13;3.00;;;1.23;;
6117;SDS011;3089;48.202;11.510;2022-10-16T11:10:48;3.17;;;1.00;;
6117;SDS011;3089;48.202;11.510;2022-10-16T11:13:25;2.57;;;0.90;;
6117;SDS011;3089;48.202;11.510;2022-10-16T11:15:58;2.50;;;1.00;;
6117;SDS011;3089;48.202;11.510;2022-10-16T11:18:30;2.63;;;0.90;;
6117;SDS011;3089;48.202;11.510;2022-10-16T11:21:10;2.40;;;0.90;;
6117;SDS011;3089;48.202;11.510;2022-10-16T11:23:41;2.83;;;1.20;;
6117;SDS011;3089;48.202;11.510;2022-10-16T11:26:16;3.30;;;1.00;;
6117;SDS011;3089;48.202;11.510;2022-10-16T11:28:48;3.77;;;1.40;;
6117;SDS011;3089;48.202;11.510;2022-10-16T11:31:18;2.90;;;1.10;;
6117;SDS011;3089;48.202;11.510;2022-10-16T11:33:53;3.00;;;1.20;;
6117;SDS011;3089;48.202;11.510;2022-10-16T11:36:31;3.87;;;1.17;;
6117;SDS011;3089;48.202;11.510;2022-10-16T11:39:04;2.77;;;1.10;;
6117;SDS011;3089;48.202;11.510;2022-10-16T11:41:44;8.27;;;1.07;;
6117;SDS011;3089;48.202;11.510;2022-10-16T11:44:20;2.43;;;0.90;;
6117;SDS011;3089;48.202;11.510;2022-10-16T11:47:01;8.33;;;1.00;;
6117;SDS011;3089;48.202;11.510;2022-10-16T11:49:59;2.90;;;1.10;;
6117;SDS011;3089;48.202;11.510;2022-10-16T11:52:33;3.23;;;1.30;;
6117;SDS011;3089;48.202;11.510;2022-10-16T11:55:09;2.33;;;0.83;;
6117;SDS011;3089;48.202;11.510;2022-10-16T11:57:44;3.00;;;1.10;;
6117;SDS011;3089;48.202;11.510;2022-10-16T12:00:17;4.20;;;0.87;;
6117;SDS011;3089;48.202;11.510;2022-10-16T12:02:55;2.77;;;1.10;;
6117;SDS011;3089;48.202;11.510;2022-10-16T12:05:33;2.20;;;0.70;;
6117;SDS011;3089;48.202;11.510;2022-10-16T12:08:14;2.60;;;0.80;;
6117;SDS011;3089;48.202;11.510;2022-10-16T12:10:43;2.23;;;0.80;;
6117;SDS011;3089;48.202;11.510;2022-10-16T12:13:28;2.97;;;0.90;;
6117;SDS011;3089;48.202;11.510;2022-10-16T12:16:04;2.70;;;0.90;;
6117;SDS011;3089;48.202;11.510;2022-10-16T12:18:33;2.87;;;1.10;;
6117;SDS011;3089;48.202;11.510;2022-10-16T12:21:01;2.40;;;0.90;;
6117;SDS011;3089;48.202;11.510;2022-10-16T12:23:36;2.50;;;1.03;;
6117;SDS011;3089;48.202;11.510;2022-10-16T12:26:05;2.90;;;0.97;;
6117;SDS011;3089;48.202;11.510;2022-10-16T12:28:33;3.33;;;0.90;;
6117;SDS011;3089;48.202;11.510;2022-10-16T12:31:04;3.40;;;1.20;;
6117;SDS011;3089;48.202;11.510;2022-10-16T12:33:35;2.53;;;0.73;;
6117;SDS011;3089;48.202;11.510;2022-10-16T12:36:04;2.50;;;0.83;;
6117;SDS011;3089;48.202;11.510;2022-10-16T12:38:45;2.80;;;0.90;;
6117;SDS011;3089;48.202;11.510;2022-10-16T12:41:23;3.63;;;0.80;;
6117;SDS011;3089;48.202;11.510;2022-10-16T12:43:52;2.60;;;1.00;;
6117;SDS011;3089;48.202;11.510;2022-10-16T12:46:22;3.90;;;0.70;;
6117;SDS011;3089;48.202;11.510;2022-10-16T12:49:05;2.10;;;0.60;;
6117;SDS011;3089;48.202;11.510;2022-10-16T12:51:45;2.20;;;0.70;;
6117;SDS011;3089;48.202;11.510;2022-10-16T12:54:15;3.27;;;0.93;;
6117;SDS011;3089;48.202;11.510;2022-10-16T12:56:48;2.60;;;0.73;;
6117;SDS011;3089;48.202;11.510;2022-10-16T12:59:26;2.30;;;0.70;;
6117;SDS011;3089;48.202;11.510;2022-10-16T13:02:15;2.40;;;0.70;;
6117;SDS011;3089;48.202;11.510;2022-10-16T13:05:08;4.30;;;0.80;;
6117;SDS011;3089;48.202;11.510;2022-10-16T13:07:56;2.50;;;0.70;;
6117;SDS011;3089;48.202;11.510;2022-10-16T13:10:35;2.30;;;0.70;;
6117;SDS011;3089;48.202;11.510;2022-10-16T13:13:12;2.50;;;0.80;;
6117;SDS011;3089;48.202;11.510;2022-10-16T13:16:09;2.60;;;0.90;;
6117;SDS011;3089;48.202;11.510;2022-10-16T13:18:45;2.70;;;0.90;;
6117;SDS011;3089;48.202;11.510;2022-10-16T13:21:24;2.50;;;0.70;;
6117;SDS011;3089;48.202;11.510;2022-10-16T13:24:02;2.70;;;0.90;;
6117;SDS011;3089;48.202;11.510;2022-10-16T13:26:44;3.63;;;0.80;;
6117;SDS011;3089;48.202;11.510;2022-10-16T13:29:17;2.47;;;0.87;;
6117;SDS011;3089;48.202;11.510;2022-10-16T13:31:46;2.20;;;0.80;;
6117;SDS011;3089;48.202;11.510;2022-10-16T13:34:15;2.17;;;0.70;;
6117;SDS011;3089;48.202;11.510;2022-10-16T13:36:46;2.40;;;0.70;;
6117;SDS011;3089;48.202;11.510;2022-10-16T13:39:20;2.43;;;0.80;;
6117;SDS011;3089;48.202;11.510;2022-10-16T13:42:02;2.40;;;0.90;;
6117;SDS011;3089;48.202;11.510;2022-10-16T13:44:35;2.27;;;0.73;;
6117;SDS011;3089;48.202;11.510;2022-10-16T13:47:11;2.20;;;0.67;;
6117;SDS011;3089;48.202;11.510;2022-10-16T13:49:43;2.20;;;0.80;;
6117;SDS011;3089;48.202;11.510;2022-10-16T13:52:15;2.40;;;0.90;;
6117;SDS011;3089;48.202;11.510;2022-10-16T13:54:45;2.10;;;0.60;;
6117;SDS011;3089;48.202;11.510;2022-10-16T13:57:15;2.20;;;0.70;;
6117;SDS011;3089;48.202;11.510;2022-10-16T13:59:59;2.57;;;0.80;;
6117;SDS011;3089;48.202;11.510;2022-10-16T14:02:27;2.53;;;0.77;;
6117;SDS011;3089;48.202;11.510;2022-10-16T14:05:00;2.93;;;0.70;;
6117;SDS011;3089;48.202;11.510;2022-10-16T14:07:31;5.03;;;0.83;;
6117;SDS011;3089;48.202;11.510;2022-10-16T14:10:00;6.50;;;1.00;;
6117;SDS011;3089;48.202;11.510;2022-10-16T14:12:33;2.77;;;0.70;;
6117;SDS011;3089;48.202;11.510;2022-10-16T14:15:02;2.50;;;0.80;;
6117;SDS011;3089;48.202;11.510;2022-10-16T14:17:32;3.50;;;0.73;;
6117;SDS011;3089;48.202;11.510;2022-10-16T14:20:03;2.40;;;0.80;;
6117;SDS011;3089;48.202;11.510;2022-10-16T14:22:33;2.97;;;0.80;;
6117;SDS011;3089;48.202;11.510;2022-10-16T14:25:08;2.57;;;0.80;;
6117;SDS011;3089;48.202;11.510;2022-10-16T14:27:57;3.13;;;0.80;;
6117;SDS011;3089;48.202;11.510;2022-10-16T14:30:27;2.60;;;0.80;;
6117;SDS011;3089;48.202;11.510;2022-10-16T14:32:57;3.33;;;0.80;;
6117;SDS011;3089;48.202;11.510;2022-10-16T14:35:27;2.80;;;0.90;;
6117;SDS011;3089;48.202;11.510;2022-10-16T14:37:58;2.33;;;0.80;;
6117;SDS011;3089;48.202;11.510;2022-10-16T14:40:28;2.40;;;0.80;;
6117;SDS011;3089;48.202;11.510;2022-10-16T14:42:59;2.23;;;0.77;;
6117;SDS011;3089;48.202;11.510;2022-10-16T14:45:29;2.57;;;0.70;;
6117;SDS011;3089;48.202;11.510;2022-10-16T14:47:59;2.47;;;0.73;;
6117;SDS011;3089;48.202;11.510;2022-10-16T14:50:29;2.70;;;0.90;;
6117;SDS011;3089;48.202;11.510;2022-10-16T14:52:57;3.13;;;0.97;;
6117;SDS011;3089;48.202;11.510;2022-10-16T14:55:25;3.77;;;0.93;;
6117;SDS011;3089;48.202;11.510;2022-10-16T14:57:53;2.20;;;0.70;;
6117;SDS011;3089;48.202;11.510;2022-10-16T15:00:27;4.13;;;0.80;;
6117;SDS011;3089;48.202;11.510;2022-10-16T15:02:55;2.90;;;0.90;;
6117;SDS011;3089;48.202;11.510;2022-10-16T15:05:23;4.00;;;1.07;;
6117;SDS011;3089;48.202;11.510;2022-10-16T15:07:53;4.93;;;1.23;;
6117;SDS011;3089;48.202;11.510;2022-10-16T15:10:22;2.23;;;0.83;;
6117;SDS011;3089;48.202;11.510;2022-10-16T15:12:51;4.10;;;1.10;;
6117;SDS011;3089;48.202;11.510;2022-10-16T15:15:34;4.13;;;1.20;;
6117;SDS011;3089;48.202;11.510;2022-10-16T15:18:04;5.40;;;1.00;;
6117;SDS011;3089;48.202;11.510;2022-10-16T15:20:32;3.67;;;1.20;;
6117;SDS011;3089;48.202;11.510;2022-10-16T15:23:01;2.90;;;1.17;;
6117;SDS011;3089;48.202;11.510;2022-10-16T15:25:32;3.10;;;1.03;;
6117;SDS011;3089;48.202;11.510;2022-10-16T15:28:02;2.80;;;1.10;;
6117;SDS011;3089;48.202;11.510;2022-10-16T15:30:31;2.90;;;1.20;;
6117;SDS011;3089;48.202;11.510;2022-10-16T15:33:01;2.80;;;1.10;;
6117;SDS011;3089;48.202;11.510;2022-10-16T15:35:29;2.73;;;1.00;;